createdAt,value
2019-03-06T00:00:49.810Z,26.50
2019-03-06T00:01:56.570Z,24.00
2019-03-06T00:02:59.339Z,29.00
2019-03-06T00:04:02.466Z,23.50
2019-03-06T00:05:06.372Z,28.00
2019-03-06T00:06:16.431Z,29.50
2019-03-06T00:07:14.521Z,28.50
2019-03-06T00:08:24.609Z,28.00
2019-03-06T00:09:27.546Z,22.00
2019-03-06T00:10:31.536Z,24.00
2019-03-06T00:11:36.495Z,28.00
2019-03-06T00:12:39.563Z,29.50
2019-03-06T00:13:42.756Z,32.00
2019-03-06T00:14:45.579Z,26.00
2019-03-06T00:15:48.363Z,27.00
2019-03-06T00:16:51.137Z,24.00
2019-03-06T00:17:53.907Z,27.00
2019-03-06T00:18:57.093Z,32.50
2019-03-06T00:20:00.337Z,31.00
2019-03-06T00:21:03.165Z,26.00
2019-03-06T00:22:05.930Z,29.00
2019-03-06T00:23:08.771Z,26.50
2019-03-06T00:24:14.050Z,26.00
2019-03-06T00:25:17.320Z,29.00
2019-03-06T00:27:34.532Z,20.00
2019-03-06T00:28:42.344Z,19.50
2019-03-06T00:29:47.320Z,29.00
2019-03-06T00:30:55.606Z,33.00
2019-03-06T00:32:01.196Z,25.50
2019-03-06T00:33:06.763Z,26.50
2019-03-06T00:34:09.573Z,27.00
2019-03-06T00:35:17.251Z,28.50
2019-03-06T00:36:22.389Z,26.00
2019-03-06T00:37:25.203Z,25.50
2019-03-06T00:38:28.295Z,23.50
2019-03-06T00:39:37.267Z,23.50
2019-03-06T00:40:54.101Z,21.50
2019-03-06T00:41:56.918Z,18.00
2019-03-06T00:43:01.393Z,18.50
2019-03-06T00:44:04.496Z,21.50
2019-03-06T00:45:07.363Z,24.00
2019-03-06T00:46:10.237Z,23.50
2019-03-06T00:47:13.060Z,18.00
2019-03-06T00:48:15.896Z,19.00
2019-03-06T00:49:18.897Z,20.00
2019-03-06T00:50:21.966Z,21.50
2019-03-06T00:51:24.851Z,19.50
2019-03-06T00:52:27.652Z,20.00
2019-03-06T00:53:31.821Z,18.00
2019-03-06T00:54:34.621Z,21.50
2019-03-06T00:55:37.418Z,20.50
2019-03-06T00:56:40.632Z,23.00
2019-03-06T00:57:43.466Z,14.50
2019-03-06T00:58:46.310Z,23.00
2019-03-06T00:59:49.466Z,17.00
2019-03-06T01:00:52.275Z,19.00
2019-03-06T01:01:55.085Z,21.50
2019-03-06T01:02:58.224Z,18.50
2019-03-06T01:04:01.625Z,15.00
2019-03-06T01:05:04.519Z,20.00
2019-03-06T01:06:07.329Z,22.00
2019-03-06T01:07:10.160Z,18.50
2019-03-06T01:08:13.009Z,22.50
2019-03-06T01:09:17.420Z,18.00
2019-03-06T01:10:20.242Z,20.00
2019-03-06T01:11:23.234Z,19.50
2019-03-06T01:12:26.062Z,15.50
2019-03-06T01:13:28.962Z,17.50
2019-03-06T01:14:31.770Z,19.50
2019-03-06T01:15:34.860Z,16.00
2019-03-06T01:16:37.668Z,17.50
2019-03-06T01:17:40.496Z,19.50
2019-03-06T01:18:43.416Z,17.50
2019-03-06T01:19:46.432Z,21.50
2019-03-06T01:20:49.260Z,23.50
2019-03-06T01:21:52.388Z,28.50
2019-03-06T01:22:55.193Z,24.00
2019-03-06T01:23:58.477Z,21.50
2019-03-06T01:25:03.567Z,22.00
2019-03-06T01:26:06.450Z,25.00
2019-03-06T01:27:09.241Z,24.00
2019-03-06T01:28:12.353Z,23.50
2019-03-06T01:29:15.126Z,32.50
2019-03-06T01:30:18.938Z,28.00
2019-03-06T01:31:24.780Z,28.00
2019-03-06T01:32:27.642Z,33.50
2019-03-06T01:33:49.556Z,33.00
2019-03-06T01:35:12.589Z,25.00
2019-03-06T01:36:40.092Z,29.00
2019-03-06T01:37:58.678Z,20.50
2019-03-06T01:39:08.815Z,21.50
2019-03-06T01:40:26.646Z,28.00
2019-03-06T01:41:51.514Z,19.00
2019-03-06T01:43:05.655Z,23.50
2019-03-06T01:44:13.024Z,25.00
2019-03-06T01:45:16.040Z,29.00
2019-03-06T01:46:18.903Z,29.50
2019-03-06T01:47:21.875Z,31.50
2019-03-06T01:48:24.802Z,29.50
2019-03-06T01:49:27.712Z,29.50
2019-03-06T01:50:30.852Z,40.00
2019-03-06T01:51:33.698Z,32.00
2019-03-06T01:52:36.561Z,28.50
2019-03-06T01:53:39.353Z,27.50
2019-03-06T01:54:42.893Z,33.00
2019-03-06T01:55:45.720Z,32.50
2019-03-06T01:56:48.788Z,34.00
2019-03-06T01:57:51.636Z,29.50
2019-03-06T01:58:54.645Z,32.00
2019-03-06T01:59:57.495Z,31.50
2019-03-06T02:01:00.304Z,29.00
2019-03-06T02:02:05.942Z,29.50
2019-03-06T02:03:09.049Z,27.50
2019-03-06T02:04:11.920Z,35.00
2019-03-06T02:05:14.758Z,29.00
2019-03-06T02:06:19.775Z,28.50
2019-03-06T02:07:22.768Z,26.00
2019-03-06T02:08:25.629Z,30.50
2019-03-06T02:09:28.795Z,28.00
2019-03-06T02:10:32.082Z,29.00
2019-03-06T02:11:35.332Z,30.00
2019-03-06T02:12:38.150Z,30.50
2019-03-06T02:13:41.001Z,26.50
2019-03-06T02:14:43.823Z,24.00
2019-03-06T02:15:48.717Z,28.50
2019-03-06T02:16:51.550Z,28.00
2019-03-06T02:17:54.379Z,26.50
2019-03-06T02:18:57.629Z,25.00
2019-03-06T02:20:00.928Z,28.50
2019-03-06T02:21:04.261Z,22.50
2019-03-06T02:22:07.784Z,16.50
2019-03-06T02:23:10.583Z,24.50
2019-03-06T02:24:13.410Z,22.00
2019-03-06T02:25:16.210Z,31.50
2019-03-06T02:26:19.276Z,24.00
2019-03-06T02:27:22.483Z,33.00
2019-03-06T02:28:25.573Z,27.00
2019-03-06T02:29:28.396Z,24.00
2019-03-06T02:30:31.244Z,25.75
2019-03-06T02:31:34.097Z,25.50
2019-03-06T02:32:36.912Z,24.75
2019-03-06T02:33:39.747Z,32.50
2019-03-06T02:34:42.827Z,28.00
2019-03-06T02:35:45.636Z,27.00
2019-03-06T02:36:48.540Z,22.25
2019-03-06T02:37:51.332Z,28.75
2019-03-06T02:38:54.138Z,25.75
2019-03-06T02:39:56.926Z,18.50
2019-03-06T02:41:00.228Z,24.00
2019-03-06T02:42:03.109Z,22.25
2019-03-06T02:43:06.034Z,18.00
2019-03-06T02:44:08.900Z,22.25
2019-03-06T02:45:11.771Z,20.25
2019-03-06T02:46:14.645Z,18.75
2019-03-06T02:47:17.949Z,15.75
2019-03-06T02:48:20.742Z,21.25
2019-03-06T02:49:23.686Z,14.75
2019-03-06T02:50:26.656Z,18.25
2019-03-06T02:51:29.434Z,18.00
2019-03-06T02:52:32.252Z,16.00
2019-03-06T02:53:35.360Z,19.50
2019-03-06T02:54:38.329Z,20.00
2019-03-06T02:55:41.413Z,17.75
2019-03-06T02:56:47.060Z,15.50
2019-03-06T02:57:54.695Z,19.00
2019-03-06T02:59:15.091Z,17.50
2019-03-06T03:00:36.315Z,17.00
2019-03-06T03:01:59.292Z,19.50
2019-03-06T03:03:24.841Z,19.50
2019-03-06T03:04:41.774Z,19.50
2019-03-06T03:05:59.702Z,17.50
2019-03-06T03:07:06.002Z,13.50
2019-03-06T03:08:08.825Z,21.00
2019-03-06T03:09:11.610Z,26.00
2019-03-06T03:10:14.864Z,19.25
2019-03-06T03:11:18.037Z,19.50
2019-03-06T03:12:20.849Z,17.75
2019-03-06T03:13:23.668Z,21.75
2019-03-06T03:14:26.487Z,20.00
2019-03-06T03:15:29.358Z,17.50
2019-03-06T03:16:32.342Z,29.00
2019-03-06T03:17:35.456Z,18.75
2019-03-06T03:18:38.277Z,17.75
2019-03-06T03:19:41.082Z,17.25
2019-03-06T03:20:43.891Z,21.00
2019-03-06T03:21:47.030Z,22.25
2019-03-06T03:22:49.848Z,22.50
2019-03-06T03:23:52.941Z,19.75
2019-03-06T03:24:55.751Z,21.50
2019-03-06T03:25:58.574Z,28.00
2019-03-06T03:27:01.501Z,21.00
2019-03-06T03:28:04.455Z,22.00
2019-03-06T03:29:07.351Z,21.75
2019-03-06T03:30:10.430Z,24.25
2019-03-06T03:31:22.285Z,25.25
2019-03-06T03:32:25.087Z,18.75
2019-03-06T03:33:27.866Z,19.75
2019-03-06T03:34:30.749Z,20.25
2019-03-06T03:35:33.707Z,22.25
2019-03-06T03:36:36.785Z,24.25
2019-03-06T03:37:39.804Z,23.75
2019-03-06T03:38:42.617Z,19.75
2019-03-06T03:39:45.479Z,24.25
2019-03-06T03:40:48.331Z,19.50
2019-03-06T03:41:51.143Z,21.25
2019-03-06T03:42:54.509Z,23.25
2019-03-06T03:43:57.420Z,19.75
2019-03-06T03:45:00.530Z,21.75
2019-03-06T03:46:03.414Z,21.00
2019-03-06T03:47:06.217Z,23.50
2019-03-06T03:48:09.017Z,23.00
2019-03-06T03:49:12.167Z,20.50
2019-03-06T03:50:14.959Z,21.75
2019-03-06T03:51:18.023Z,26.50
2019-03-06T03:52:20.950Z,22.75
2019-03-06T03:53:23.741Z,19.00
2019-03-06T03:54:26.599Z,22.25
2019-03-06T03:55:29.677Z,22.75
2019-03-06T03:56:32.567Z,25.25
2019-03-06T03:57:35.785Z,22.25
2019-03-06T03:58:38.586Z,19.75
2019-03-06T03:59:41.382Z,24.25
2019-03-06T04:00:44.207Z,27.50
2019-03-06T04:01:47.744Z,23.00
2019-03-06T04:02:50.601Z,17.50
2019-03-06T04:03:53.417Z,32.50
2019-03-06T04:04:56.224Z,25.50
2019-03-06T04:05:59.260Z,24.50
2019-03-06T04:07:02.150Z,28.75
2019-03-06T04:08:05.261Z,24.00
2019-03-06T04:09:08.495Z,24.50
2019-03-06T04:10:11.716Z,22.00
2019-03-06T04:11:14.537Z,20.00
2019-03-06T04:12:17.857Z,26.00
2019-03-06T04:13:20.683Z,20.50
2019-03-06T04:14:23.993Z,17.50
2019-03-06T04:15:26.868Z,21.00
2019-03-06T04:16:30.320Z,23.50
2019-03-06T04:17:33.852Z,23.50
2019-03-06T04:18:36.645Z,20.50
2019-03-06T04:19:40.224Z,21.50
2019-03-06T04:20:43.506Z,26.00
2019-03-06T04:21:46.695Z,26.00
2019-03-06T04:22:49.567Z,34.00
2019-03-06T04:23:52.382Z,23.50
2019-03-06T04:24:55.135Z,21.25
2019-03-06T04:25:57.978Z,29.25
2019-03-06T04:27:01.504Z,29.00
2019-03-06T04:28:04.364Z,21.50
2019-03-06T04:29:07.219Z,23.25
2019-03-06T04:30:10.027Z,30.25
2019-03-06T04:31:12.897Z,32.00
2019-03-06T04:32:15.709Z,26.75
2019-03-06T04:33:18.862Z,32.00
2019-03-06T04:34:21.883Z,27.75
2019-03-06T04:35:24.766Z,27.00
2019-03-06T04:36:27.617Z,33.25
2019-03-06T04:37:30.409Z,32.75
2019-03-06T04:38:33.295Z,30.25
2019-03-06T04:39:38.541Z,23.75
2019-03-06T04:40:41.346Z,22.25
2019-03-06T04:41:44.262Z,30.50
2019-03-06T04:42:47.484Z,22.25
2019-03-06T04:43:50.377Z,28.50
2019-03-06T04:44:55.365Z,31.50
2019-03-06T04:46:02.846Z,38.25
2019-03-06T04:47:05.661Z,31.75
2019-03-06T04:48:08.538Z,26.25
2019-03-06T04:49:11.344Z,25.75
2019-03-06T04:50:14.209Z,22.50
2019-03-06T04:51:17.327Z,32.00
2019-03-06T04:52:20.435Z,29.25
2019-03-06T04:53:23.263Z,32.25
2019-03-06T04:54:26.482Z,22.25
2019-03-06T04:55:29.339Z,24.75
2019-03-06T04:56:32.464Z,28.25
2019-03-06T04:57:40.883Z,34.25
2019-03-06T04:58:43.975Z,28.00
2019-03-06T04:59:46.826Z,35.75
2019-03-06T05:00:49.735Z,29.25
2019-03-06T05:01:59.853Z,30.25
2019-03-06T05:03:02.635Z,28.00
2019-03-06T05:04:05.423Z,33.75
2019-03-06T05:05:08.550Z,34.25
2019-03-06T05:06:11.810Z,28.25
2019-03-06T05:07:14.665Z,33.25
2019-03-06T05:08:17.637Z,22.25
2019-03-06T05:09:20.684Z,28.00
2019-03-06T05:10:24.478Z,25.25
2019-03-06T05:11:27.761Z,36.50
2019-03-06T05:12:30.626Z,31.25
2019-03-06T05:13:33.563Z,29.75
2019-03-06T05:14:36.432Z,26.25
2019-03-06T05:15:40.744Z,34.00
2019-03-06T05:17:01.225Z,28.25
2019-03-06T05:18:17.827Z,26.00
2019-03-06T05:19:20.634Z,35.00
2019-03-06T05:20:23.431Z,32.00
2019-03-06T05:21:26.266Z,34.25
2019-03-06T05:22:29.165Z,24.75
2019-03-06T05:23:32.261Z,24.75
2019-03-06T05:24:35.544Z,27.25
2019-03-06T05:25:38.761Z,25.00
2019-03-06T05:26:41.592Z,31.25
2019-03-06T05:27:47.309Z,31.25
2019-03-06T05:28:50.188Z,24.50
2019-03-06T05:29:53.361Z,27.25
2019-03-06T05:30:56.615Z,29.75
2019-03-06T05:32:00.096Z,32.25
2019-03-06T05:33:02.953Z,25.25
2019-03-06T05:34:05.778Z,33.75
2019-03-06T05:35:08.609Z,25.75
2019-03-06T05:36:14.458Z,37.75
2019-03-06T05:37:17.303Z,33.75
2019-03-06T05:38:20.193Z,24.75
2019-03-06T05:39:23.076Z,33.50
2019-03-06T05:40:25.907Z,24.75
2019-03-06T05:41:28.692Z,26.50
2019-03-06T05:42:31.786Z,25.00
2019-03-06T05:43:35.027Z,25.75
2019-03-06T05:44:38.342Z,22.75
2019-03-06T05:45:41.142Z,30.75
2019-03-06T05:46:43.972Z,26.75
2019-03-06T05:47:47.607Z,24.00
2019-03-06T05:48:50.999Z,27.25
2019-03-06T05:49:53.987Z,32.25
2019-03-06T05:50:56.795Z,23.00
2019-03-06T05:51:59.763Z,26.00
2019-03-06T05:53:02.668Z,25.75
2019-03-06T05:54:05.469Z,29.25
2019-03-06T05:55:09.147Z,26.00
2019-03-06T05:56:14.495Z,32.50
2019-03-06T05:57:17.321Z,27.00
2019-03-06T05:58:20.191Z,26.25
2019-03-06T05:59:25.743Z,27.75
2019-03-06T06:00:28.995Z,25.50
2019-03-06T06:01:38.241Z,29.75
2019-03-06T06:02:41.034Z,23.00
2019-03-06T06:03:43.857Z,30.00
2019-03-06T06:04:46.724Z,27.25
2019-03-06T06:05:49.621Z,24.50
2019-03-06T06:06:53.261Z,31.25
2019-03-06T06:07:56.476Z,28.50
2019-03-06T06:08:59.284Z,32.75
2019-03-06T06:10:02.123Z,28.25
2019-03-06T06:11:04.995Z,28.25
2019-03-06T06:12:07.831Z,25.00
2019-03-06T06:13:10.627Z,29.25
2019-03-06T06:14:13.708Z,23.25
2019-03-06T06:15:16.550Z,29.25
2019-03-06T06:16:19.451Z,26.50
2019-03-06T06:17:22.265Z,23.50
2019-03-06T06:18:25.123Z,28.75
2019-03-06T06:19:27.952Z,38.25
2019-03-06T06:20:31.068Z,23.00
2019-03-06T06:21:51.625Z,27.00
2019-03-06T06:23:15.962Z,26.25
2019-03-06T06:24:21.795Z,27.75
2019-03-06T06:25:24.612Z,37.50
2019-03-06T06:26:27.885Z,32.50
2019-03-06T06:27:31.053Z,23.75
2019-03-06T06:28:34.034Z,23.50
2019-03-06T06:29:36.832Z,23.75
2019-03-06T06:43:52.525Z,25.25
2019-03-06T06:44:55.359Z,31.00
2019-03-06T06:45:58.193Z,29.00
2019-03-06T06:47:01.039Z,28.00
2019-03-06T06:48:03.834Z,30.00
2019-03-06T06:49:07.029Z,33.50
2019-03-06T06:50:09.832Z,29.75
2019-03-06T06:51:12.790Z,30.75
2019-03-06T06:52:15.589Z,32.75
2019-03-06T06:53:21.490Z,26.50
2019-03-06T06:54:24.410Z,22.75
2019-03-06T06:55:27.650Z,26.00
2019-03-06T06:56:30.769Z,23.75
2019-03-06T06:57:36.033Z,33.00
2019-03-06T06:58:38.866Z,33.00
2019-03-06T06:59:41.774Z,30.00
2019-03-06T07:01:09.735Z,33.00
2019-03-06T07:02:20.342Z,30.25
2019-03-06T07:03:47.921Z,27.75
2019-03-06T07:05:07.775Z,24.25
2019-03-06T07:06:49.044Z,30.75
2019-03-06T07:08:13.349Z,33.00
2019-03-06T07:09:33.086Z,29.25
2019-03-06T07:11:09.475Z,28.25
2019-03-06T07:12:34.019Z,34.00
2019-03-06T07:14:01.514Z,25.00
2019-03-06T07:15:17.349Z,23.50
2019-03-06T07:16:38.927Z,33.00
2019-03-06T07:17:48.018Z,23.75
2019-03-06T07:19:11.410Z,26.25
2019-03-06T07:20:39.377Z,23.50
2019-03-06T07:21:59.453Z,26.50
2019-03-06T07:23:14.030Z,29.50
2019-03-06T07:24:48.699Z,26.00
2019-03-06T07:26:05.411Z,22.00
2019-03-06T07:27:31.441Z,22.75
2019-03-06T07:29:01.261Z,36.50
2019-03-06T07:30:25.691Z,23.00
2019-03-06T07:31:50.150Z,31.00
2019-03-06T07:33:06.928Z,30.50
2019-03-06T07:34:27.052Z,22.25
2019-03-06T07:35:52.875Z,26.75
2019-03-06T07:37:05.769Z,36.25
2019-03-06T07:38:10.541Z,26.00
2019-03-06T07:39:39.932Z,23.00
2019-03-06T07:41:01.858Z,27.75
2019-03-06T07:42:21.795Z,30.00
2019-03-06T07:43:35.984Z,23.50
2019-03-06T07:44:57.507Z,33.25
2019-03-06T07:46:28.560Z,20.25
2019-03-06T07:47:44.253Z,26.75
2019-03-06T07:49:04.428Z,35.75
2019-03-06T07:50:35.292Z,27.25
2019-03-06T07:52:02.572Z,26.75
2019-03-06T07:53:15.580Z,25.50
2019-03-06T07:54:34.374Z,26.00
2019-03-06T07:55:54.083Z,30.25
2019-03-06T07:57:03.054Z,23.25
2019-03-06T07:58:06.347Z,26.75
2019-03-06T07:59:09.241Z,24.75
2019-03-06T08:00:12.202Z,36.25
2019-03-06T08:01:17.300Z,35.25
2019-03-06T08:02:21.239Z,24.00
2019-03-06T08:03:24.751Z,23.50
2019-03-06T08:04:27.927Z,25.50
2019-03-06T08:05:30.720Z,23.25
2019-03-06T08:06:33.611Z,26.75
2019-03-06T08:07:36.437Z,29.25
2019-03-06T08:08:39.692Z,31.75
2019-03-06T08:09:42.645Z,35.00
2019-03-06T08:10:49.569Z,27.75
2019-03-06T08:12:16.918Z,26.75
2019-03-06T08:13:38.481Z,26.50
2019-03-06T08:14:46.641Z,23.50
2019-03-06T08:15:57.653Z,27.00
2019-03-06T08:17:22.685Z,21.75
2019-03-06T08:18:53.023Z,33.75
2019-03-06T08:20:13.863Z,28.25
2019-03-06T08:21:41.215Z,36.75
2019-03-06T08:23:09.491Z,26.25
2019-03-06T08:24:47.317Z,34.00
2019-03-06T08:25:51.310Z,33.50
2019-03-06T08:26:54.120Z,24.25
2019-03-06T08:27:56.906Z,28.25
2019-03-06T08:29:03.262Z,27.00
2019-03-06T08:30:06.084Z,30.00
2019-03-06T08:31:39.693Z,27.00
2019-03-06T08:32:42.504Z,37.25
2019-03-06T08:33:45.320Z,27.00
2019-03-06T08:34:49.836Z,37.50
2019-03-06T08:35:53.038Z,25.00
2019-03-06T08:36:55.852Z,27.50
2019-03-06T08:38:01.608Z,29.75
2019-03-06T08:39:04.959Z,30.75
2019-03-06T08:40:07.825Z,24.00
2019-03-06T08:41:10.624Z,32.75
2019-03-06T08:42:16.767Z,33.00
2019-03-06T08:43:19.974Z,38.50
2019-03-06T08:44:25.828Z,32.75
2019-03-06T08:45:32.833Z,22.50
2019-03-06T08:46:59.914Z,32.50
2019-03-06T08:48:15.616Z,34.25
2019-03-06T08:49:55.329Z,25.50
2019-03-06T08:51:03.863Z,37.00
2019-03-06T08:52:30.939Z,30.50
2019-03-06T08:53:50.244Z,20.50
2019-03-06T08:55:13.298Z,27.00
2019-03-06T08:56:37.734Z,32.00
2019-03-06T08:58:02.602Z,23.75
2019-03-06T08:59:23.029Z,29.25
2019-03-06T09:00:42.970Z,32.00
2019-03-06T09:02:15.741Z,25.50
2019-03-06T09:03:38.570Z,26.25
2019-03-06T09:05:06.969Z,28.75
2019-03-06T09:06:24.720Z,26.25
2019-03-06T09:08:01.442Z,21.50
2019-03-06T09:09:38.644Z,24.00
2019-03-06T09:11:03.442Z,31.25
2019-03-06T09:12:16.599Z,25.75
2019-03-06T09:13:36.571Z,24.00
2019-03-06T09:14:56.463Z,21.25
2019-03-06T09:16:16.438Z,26.75
2019-03-06T09:17:46.870Z,23.00
2019-03-06T09:19:05.894Z,26.00
2019-03-06T09:20:40.680Z,24.50
2019-03-06T09:21:46.852Z,24.75
2019-03-06T09:23:05.943Z,23.00
2019-03-06T09:24:42.496Z,27.25
2019-03-06T09:25:55.702Z,22.00
2019-03-06T09:27:07.136Z,27.25
2019-03-06T09:28:28.802Z,28.25
2019-03-06T09:29:50.321Z,27.25
2019-03-06T09:31:11.876Z,22.00
2019-03-06T09:32:27.792Z,20.75
2019-03-06T09:33:58.423Z,24.00
2019-03-06T09:35:22.843Z,20.75
2019-03-06T09:36:44.438Z,22.75
2019-03-06T09:38:20.997Z,23.50
2019-03-06T09:39:34.279Z,20.25
2019-03-06T09:41:05.110Z,20.75
2019-03-06T09:42:38.613Z,20.75
2019-03-06T09:44:15.559Z,24.00
2019-03-06T09:45:45.899Z,23.00
2019-03-06T09:47:03.387Z,21.00
2019-03-06T09:48:57.062Z,19.00
2019-03-06T09:50:06.762Z,21.50
2019-03-06T09:51:32.636Z,18.00
2019-03-06T09:52:58.498Z,14.50
2019-03-06T09:54:18.499Z,17.50
2019-03-06T09:55:41.773Z,14.75
2019-03-06T09:57:06.199Z,18.00
2019-03-06T09:58:21.510Z,19.75
2019-03-06T09:59:29.633Z,17.50
2019-03-06T10:01:03.228Z,17.00
2019-03-06T10:02:28.449Z,14.00
2019-03-06T10:03:46.180Z,16.00
2019-03-06T10:05:03.640Z,16.25
2019-03-06T10:06:37.291Z,14.00
2019-03-06T10:07:58.270Z,13.00
2019-03-06T10:09:20.783Z,11.00
2019-03-06T10:10:47.544Z,11.00
2019-03-06T10:12:16.437Z,12.50
2019-03-06T10:13:41.594Z,10.00
2019-03-06T10:15:12.146Z,12.00
2019-03-06T10:16:20.488Z,15.25
2019-03-06T10:17:51.082Z,13.00
2019-03-06T10:19:12.781Z,12.50
2019-03-06T10:20:26.772Z,15.00
2019-03-06T10:21:36.376Z,12.25
2019-03-06T10:22:39.256Z,10.00
2019-03-06T10:23:42.120Z,11.50
2019-03-06T10:24:45.921Z,11.00
2019-03-06T10:25:48.559Z,9.50
2019-03-06T10:26:51.740Z,11.00
2019-03-06T10:27:54.593Z,10.00
2019-03-06T10:29:00.029Z,8.50
2019-03-06T10:30:03.039Z,12.00
2019-03-06T10:31:05.861Z,7.00
2019-03-06T10:32:08.677Z,8.75
2019-03-06T10:33:14.337Z,8.50
2019-03-06T10:34:17.158Z,10.25
2019-03-06T10:35:22.625Z,6.50
2019-03-06T10:36:25.606Z,8.00
2019-03-06T10:37:28.517Z,8.00
2019-03-06T10:38:43.708Z,6.00
2019-03-06T10:39:49.650Z,7.50
2019-03-06T10:40:52.465Z,8.00
2019-03-06T10:41:55.424Z,7.00
2019-03-06T10:42:59.987Z,7.00
2019-03-06T10:44:04.585Z,7.00
2019-03-06T10:45:08.156Z,7.00
2019-03-06T10:46:11.132Z,13.25
2019-03-06T10:47:14.050Z,12.50
2019-03-06T10:48:18.853Z,19.00
2019-03-06T10:49:22.455Z,18.00
2019-03-06T10:50:31.739Z,13.00
2019-03-06T10:51:37.508Z,9.00
2019-03-06T10:52:40.326Z,9.00
2019-03-06T10:53:43.147Z,9.00
2019-03-06T10:54:47.999Z,12.00
2019-03-06T10:55:50.762Z,6.00
2019-03-06T10:56:53.961Z,8.50
2019-03-06T10:57:58.842Z,8.75
2019-03-06T10:59:02.227Z,11.00
2019-03-06T11:00:07.436Z,6.00
2019-03-06T11:01:10.242Z,8.25
2019-03-06T11:02:13.315Z,7.00
2019-03-06T11:03:18.414Z,8.00
2019-03-06T11:04:49.319Z,7.00
2019-03-06T11:05:52.099Z,8.00
2019-03-06T11:06:56.150Z,7.50
2019-03-06T11:08:04.810Z,8.50
2019-03-06T11:09:07.230Z,8.50
2019-03-06T11:10:23.395Z,7.00
2019-03-06T11:11:20.134Z,6.50
2019-03-06T11:12:22.979Z,8.00
2019-03-06T11:13:26.112Z,8.00
2019-03-06T11:14:29.296Z,8.50
2019-03-06T11:15:34.398Z,6.00
2019-03-06T11:16:40.196Z,10.25
2019-03-06T11:17:43.706Z,10.50
2019-03-06T11:18:51.384Z,6.00
2019-03-06T11:19:54.406Z,6.00
2019-03-06T11:21:00.303Z,5.00
2019-03-06T11:22:07.404Z,5.75
2019-03-06T11:23:20.658Z,6.00
2019-03-06T11:24:24.841Z,6.00
2019-03-06T11:25:27.660Z,7.00
2019-03-06T11:26:30.570Z,6.00
2019-03-06T11:27:33.679Z,8.00
2019-03-06T11:28:36.583Z,8.50
2019-03-06T11:29:40.193Z,6.00
2019-03-06T11:42:39.754Z,8.00
2019-03-06T11:43:42.682Z,6.25
2019-03-06T11:44:55.775Z,7.00
2019-03-06T11:45:58.584Z,7.75
2019-03-06T11:47:01.600Z,6.00
2019-03-06T11:48:04.920Z,7.50
2019-03-06T11:49:07.619Z,8.00
2019-03-06T11:50:13.271Z,6.00
2019-03-06T11:51:16.454Z,8.00
2019-03-06T11:52:23.104Z,7.00
2019-03-06T11:53:25.932Z,6.00
2019-03-06T11:54:36.276Z,8.00
2019-03-06T11:55:40.477Z,4.75
2019-03-06T11:56:46.508Z,10.25
2019-03-06T11:57:49.345Z,6.00
2019-03-06T11:58:52.258Z,8.50
2019-03-06T11:59:57.304Z,5.00
2019-03-06T12:01:00.661Z,6.50
2019-03-06T12:02:03.709Z,7.00
2019-03-06T12:03:06.459Z,6.00
2019-03-06T12:04:09.175Z,7.00
2019-03-06T12:05:12.778Z,5.50
2019-03-06T12:06:18.346Z,7.00
2019-03-06T12:07:22.548Z,8.00
2019-03-06T12:08:29.004Z,4.50
2019-03-06T12:09:32.136Z,7.00
2019-03-06T12:10:37.019Z,8.00
2019-03-06T12:11:39.874Z,8.00
2019-03-06T12:12:42.825Z,8.00
2019-03-06T12:13:49.828Z,8.00
2019-03-06T12:14:52.793Z,7.00
2019-03-06T12:15:55.730Z,6.50
2019-03-06T12:16:58.892Z,8.00
2019-03-06T12:18:01.847Z,6.00
2019-03-06T12:19:09.831Z,6.00
2019-03-06T12:20:17.753Z,8.75
2019-03-06T12:21:28.715Z,4.50
2019-03-06T12:22:33.178Z,6.00
2019-03-06T12:23:36.300Z,7.25
2019-03-06T12:24:39.203Z,6.00
2019-03-06T12:25:43.101Z,8.00
2019-03-06T12:26:46.072Z,6.00
2019-03-06T12:27:48.795Z,4.00
2019-03-06T12:28:51.614Z,7.25
2019-03-06T12:29:57.231Z,6.50
2019-03-06T12:31:00.157Z,5.00
2019-03-06T12:32:07.136Z,5.00
2019-03-06T12:33:10.665Z,7.75
2019-03-06T12:34:13.557Z,7.25
2019-03-06T12:35:16.700Z,4.50
2019-03-06T12:36:19.436Z,6.00
2019-03-06T12:37:22.169Z,5.75
2019-03-06T12:38:25.934Z,6.25
2019-03-06T12:39:29.726Z,6.25
2019-03-06T12:40:32.925Z,4.00
2019-03-06T12:41:35.723Z,6.50
2019-03-06T12:42:38.624Z,10.50
2019-03-06T12:43:41.277Z,4.00
2019-03-06T12:44:44.005Z,9.50
2019-03-06T12:45:48.218Z,9.75
2019-03-06T12:46:51.073Z,10.25
2019-03-06T12:47:56.923Z,7.75
2019-03-06T12:48:59.802Z,7.75
2019-03-06T12:50:05.718Z,7.00
2019-03-06T12:51:07.384Z,10.75
2019-03-06T12:52:10.732Z,7.00
2019-03-06T12:53:16.512Z,4.00
2019-03-06T12:54:19.266Z,5.50
2019-03-06T12:55:22.165Z,6.00
2019-03-06T12:56:24.892Z,3.75
2019-03-06T12:57:27.844Z,4.50
2019-03-06T12:59:38.912Z,8.25
2019-03-06T13:00:41.653Z,7.25
2019-03-06T13:01:44.240Z,6.00
2019-03-06T13:02:52.389Z,4.50
2019-03-06T13:03:55.516Z,5.50
2019-03-06T13:04:58.208Z,7.50
2019-03-06T13:06:01.037Z,4.50
2019-03-06T13:07:03.849Z,4.00
2019-03-06T13:08:06.768Z,9.00
2019-03-06T13:09:10.155Z,6.50
2019-03-06T13:10:17.176Z,4.00
2019-03-06T13:11:19.925Z,5.00
2019-03-06T13:12:22.711Z,4.50
2019-03-06T13:13:35.264Z,5.50
2019-03-06T13:14:30.670Z,6.00
2019-03-06T13:15:33.402Z,8.00
2019-03-06T13:16:36.282Z,8.00
2019-03-06T13:17:41.726Z,9.50
2019-03-06T13:18:44.566Z,8.00
2019-03-06T13:19:47.529Z,9.00
2019-03-06T13:20:53.250Z,9.75
2019-03-06T13:21:58.876Z,4.25
2019-03-06T13:23:04.064Z,8.75
2019-03-06T13:24:06.316Z,8.00
2019-03-06T13:25:09.190Z,6.50
2019-03-06T13:26:12.089Z,8.00
2019-03-06T13:27:15.233Z,4.75
2019-03-06T13:28:18.064Z,8.50
2019-03-06T13:29:35.545Z,7.75
2019-03-06T13:30:38.367Z,7.00
2019-03-06T13:31:41.136Z,4.75
2019-03-06T13:33:08.581Z,8.00
2019-03-06T13:34:31.063Z,6.50
2019-03-06T13:35:34.294Z,8.00
2019-03-06T13:36:42.515Z,9.75
2019-03-06T13:37:52.060Z,6.00
2019-03-06T13:39:06.071Z,8.00
2019-03-06T13:40:00.964Z,6.00
2019-03-06T13:41:04.037Z,4.75
2019-03-06T13:42:10.111Z,5.25
2019-03-06T13:43:15.118Z,6.00
2019-03-06T13:44:19.431Z,7.00
2019-03-06T13:45:22.097Z,6.00
2019-03-06T13:46:25.150Z,6.50
2019-03-06T13:47:30.537Z,5.75
2019-03-06T13:48:35.893Z,5.75
2019-03-06T13:49:40.979Z,4.75
2019-03-06T13:50:48.567Z,5.50
2019-03-06T13:51:57.791Z,6.00
2019-03-06T13:53:00.492Z,8.00
2019-03-06T13:54:04.735Z,7.50
2019-03-06T13:55:08.135Z,8.00
2019-03-06T13:56:10.917Z,6.00
2019-03-06T13:57:17.918Z,4.50
2019-03-06T13:58:28.294Z,3.00
2019-03-06T13:59:30.992Z,4.00
2019-03-06T14:00:34.104Z,6.50
2019-03-06T14:01:39.972Z,5.25
2019-03-06T14:02:42.847Z,8.00
2019-03-06T14:03:46.644Z,5.50
2019-03-06T14:04:51.175Z,8.00
2019-03-06T14:05:56.928Z,6.00
2019-03-06T14:06:59.757Z,9.00
2019-03-06T14:08:05.680Z,4.75
2019-03-06T14:09:11.140Z,6.00
2019-03-06T14:10:16.582Z,5.50
2019-03-06T14:11:23.097Z,3.75
2019-03-06T14:12:30.393Z,6.00
2019-03-06T14:13:34.847Z,4.50
2019-03-06T14:14:39.059Z,5.50
2019-03-06T14:15:41.744Z,6.50
2019-03-06T14:16:44.552Z,4.00
2019-03-06T14:17:47.253Z,4.00
2019-03-06T14:18:50.025Z,6.00
2019-03-06T14:19:52.772Z,5.00
2019-03-06T14:20:55.849Z,3.75
2019-03-06T14:21:58.693Z,4.00
2019-03-06T14:23:03.308Z,5.75
2019-03-06T14:24:06.209Z,7.00
2019-03-06T14:25:09.164Z,4.50
2019-03-06T14:26:12.060Z,6.00
2019-03-06T14:27:15.170Z,6.00
2019-03-06T14:28:17.861Z,6.50
2019-03-06T14:29:20.559Z,6.00
2019-03-06T14:30:26.173Z,8.25
2019-03-06T14:31:32.172Z,5.50
2019-03-06T14:32:35.309Z,6.00
2019-03-06T14:33:38.712Z,4.00
2019-03-06T14:34:42.698Z,6.00
2019-03-06T14:35:50.258Z,6.50
2019-03-06T14:36:52.972Z,6.00
2019-03-06T14:37:58.194Z,4.00
2019-03-06T14:39:01.621Z,3.75
2019-03-06T14:40:11.295Z,8.75
2019-03-06T14:41:14.360Z,6.00
2019-03-06T14:42:17.793Z,3.25
2019-03-06T14:43:23.166Z,3.25
2019-03-06T14:44:28.981Z,6.00
2019-03-06T14:45:33.884Z,6.00
2019-03-06T14:46:44.139Z,3.00
2019-03-06T14:47:47.132Z,5.75
2019-03-06T14:48:50.093Z,3.75
2019-03-06T14:49:52.859Z,4.25
2019-03-06T14:50:58.420Z,3.75
2019-03-06T14:52:07.162Z,5.25
2019-03-06T14:53:05.804Z,4.00
2019-03-06T14:54:08.605Z,4.00
2019-03-06T14:55:11.337Z,4.00
2019-03-06T14:56:14.126Z,4.00
2019-03-06T14:57:19.016Z,4.75
2019-03-06T14:58:22.170Z,6.00
2019-03-06T14:59:25.057Z,4.75
2019-03-06T15:00:32.635Z,4.00
2019-03-06T15:01:38.039Z,6.00
2019-03-06T15:02:43.703Z,4.75